createdAt,value
2023-05-07T00:03:35.464Z,6.80
2023-05-07T00:06:04.835Z,5.90
2023-05-07T00:08:36.305Z,5.80
2023-05-07T00:11:04.625Z,5.60
2023-05-07T00:13:33.373Z,10.30
2023-05-07T00:16:05.160Z,8.10
2023-05-07T00:18:33.904Z,9.00
2023-05-07T00:21:04.757Z,9.10
2023-05-07T00:23:33.402Z,5.60
2023-05-07T00:26:01.389Z,6.00
2023-05-07T00:28:29.498Z,6.90
2023-05-07T00:30:57.721Z,6.90
2023-05-07T00:33:25.880Z,7.40
2023-05-07T00:35:54.737Z,6.40
2023-05-07T00:38:23.088Z,6.30
2023-05-07T00:40:51.131Z,5.90
2023-05-07T00:43:21.679Z,9.70
2023-05-07T00:45:50.072Z,7.40
2023-05-07T00:48:19.896Z,7.70
2023-05-07T00:50:49.374Z,7.40
2023-05-07T00:53:18.580Z,7.20
2023-05-07T00:55:47.414Z,6.10
2023-05-07T00:58:16.156Z,10.70
2023-05-07T01:00:45.116Z,5.10
2023-05-07T01:03:15.014Z,5.10
2023-05-07T01:05:47.179Z,6.80
2023-05-07T01:08:17.840Z,6.40
2023-05-07T01:10:47.722Z,5.10
2023-05-07T01:13:17.247Z,5.40
2023-05-07T01:15:45.506Z,5.80
2023-05-07T01:18:15.088Z,5.10
2023-05-07T01:20:43.806Z,5.80
2023-05-07T01:23:13.646Z,3.80
2023-05-07T01:25:43.074Z,5.90
2023-05-07T01:28:12.111Z,5.50
2023-05-07T01:30:46.246Z,6.80
2023-05-07T01:33:19.944Z,4.70
2023-05-07T01:35:54.656Z,4.00
2023-05-07T01:38:24.667Z,4.00
2023-05-07T01:40:53.862Z,6.00
2023-05-07T01:43:23.035Z,8.80
2023-05-07T01:45:51.264Z,5.10
2023-05-07T01:48:21.079Z,4.50
2023-05-07T01:50:50.546Z,4.10
2023-05-07T01:53:18.672Z,5.20
2023-05-07T01:55:46.893Z,4.10
2023-05-07T01:58:17.015Z,10.30
2023-05-07T02:00:45.199Z,6.60
2023-05-07T02:03:16.603Z,6.90
2023-05-07T02:05:45.612Z,4.20
2023-05-07T02:08:14.880Z,4.10
2023-05-07T02:10:43.372Z,6.60
2023-05-07T02:13:12.196Z,7.00
2023-05-07T02:15:41.424Z,6.40
2023-05-07T02:18:09.710Z,13.50
2023-05-07T02:20:38.157Z,6.50
2023-05-07T02:23:07.245Z,4.70
2023-05-07T02:25:36.423Z,4.70
2023-05-07T02:28:05.492Z,6.80
2023-05-07T02:30:33.974Z,4.10
2023-05-07T02:33:02.222Z,6.10
2023-05-07T02:35:31.306Z,5.90
2023-05-07T02:37:59.831Z,4.60
2023-05-07T02:40:28.640Z,6.80
2023-05-07T02:42:56.937Z,3.90
2023-05-07T02:45:25.702Z,3.50
2023-05-07T02:47:53.962Z,4.20
2023-05-07T02:50:23.145Z,5.30
2023-05-07T02:52:51.175Z,3.70
2023-05-07T02:55:19.832Z,6.20
2023-05-07T02:57:48.622Z,4.70
2023-05-07T03:00:19.382Z,6.30
2023-05-07T03:02:48.204Z,2.50
2023-05-07T03:05:17.611Z,4.50
2023-05-07T03:07:46.266Z,4.30
2023-05-07T03:10:14.441Z,3.40
2023-05-07T03:12:43.095Z,5.30
2023-05-07T03:15:12.029Z,6.10
2023-05-07T03:17:40.297Z,7.10
2023-05-07T03:20:11.116Z,7.80
2023-05-07T03:22:40.529Z,8.10
2023-05-07T03:25:10.812Z,11.10
2023-05-07T03:27:40.149Z,17.60
2023-05-07T03:30:10.544Z,12.10
2023-05-07T03:32:39.474Z,8.20
2023-05-07T03:35:09.196Z,11.30
2023-05-07T03:37:39.746Z,9.50
2023-05-07T03:40:12.341Z,11.00
2023-05-07T03:42:40.928Z,6.00
2023-05-07T03:45:10.643Z,8.20
2023-05-07T03:47:39.207Z,11.50
2023-05-07T03:50:08.336Z,6.40
2023-05-07T03:52:37.199Z,7.20
2023-05-07T03:55:07.030Z,9.50
2023-05-07T03:57:35.372Z,5.90
2023-05-07T04:00:04.593Z,9.20
2023-05-07T04:02:34.548Z,5.20
2023-05-07T04:05:03.546Z,11.60
2023-05-07T04:07:32.901Z,9.30
2023-05-07T04:10:02.636Z,11.90
2023-05-07T04:12:31.202Z,5.30
2023-05-07T04:14:59.317Z,8.50
2023-05-07T04:17:27.574Z,10.20
2023-05-07T04:19:55.831Z,9.90
2023-05-07T04:22:24.801Z,11.70
2023-05-07T04:24:53.002Z,11.40
2023-05-07T04:27:22.596Z,9.20
2023-05-07T04:29:50.885Z,12.30
2023-05-07T04:32:19.411Z,10.80
2023-05-07T04:34:49.471Z,9.60
2023-05-07T04:37:18.928Z,7.70
2023-05-07T04:39:47.360Z,9.20
2023-05-07T04:42:17.609Z,9.10
2023-05-07T04:44:46.707Z,8.10
2023-05-07T04:47:15.968Z,6.60
2023-05-07T04:49:45.672Z,7.40
2023-05-07T04:52:14.355Z,7.90
2023-05-07T04:54:42.588Z,7.50
2023-05-07T04:57:11.123Z,5.60
2023-05-07T04:59:41.455Z,8.90
2023-05-07T05:02:11.269Z,8.40
2023-05-07T05:04:39.695Z,7.60
2023-05-07T05:07:10.000Z,7.70
2023-05-07T05:09:39.016Z,9.80
2023-05-07T05:12:07.621Z,7.60
2023-05-07T05:14:37.069Z,9.00
2023-05-07T05:17:06.184Z,6.40
2023-05-07T05:19:35.302Z,6.60
2023-05-07T05:22:06.294Z,5.50
2023-05-07T05:24:35.768Z,10.20
2023-05-07T05:27:04.544Z,5.20
2023-05-07T05:29:33.072Z,5.70
2023-05-07T05:32:02.901Z,7.70
2023-05-07T05:34:31.572Z,17.60
2023-05-07T05:37:00.817Z,8.80
2023-05-07T05:39:28.998Z,5.20
2023-05-07T05:41:57.950Z,11.20
2023-05-07T05:44:27.424Z,9.40
2023-05-07T05:46:56.393Z,10.20
2023-05-07T05:49:25.080Z,7.20
2023-05-07T05:51:54.021Z,12.20
2023-05-07T05:54:22.782Z,8.00
2023-05-07T05:56:51.183Z,8.10
2023-05-07T05:59:20.048Z,10.90
2023-05-07T06:01:48.337Z,9.40
2023-05-07T06:04:17.391Z,7.40
2023-05-07T06:06:47.302Z,9.10
2023-05-07T06:09:17.454Z,8.90
2023-05-07T06:11:47.455Z,6.30
2023-05-07T06:14:16.194Z,13.20
2023-05-07T06:16:45.367Z,20.80
2023-05-07T06:19:14.607Z,11.10
2023-05-07T06:21:43.542Z,19.10
2023-05-07T06:24:12.075Z,13.30
2023-05-07T06:26:41.270Z,12.50
2023-05-07T06:29:09.422Z,9.80
2023-05-07T06:31:38.305Z,8.80
2023-05-07T06:34:06.951Z,9.20
2023-05-07T06:36:36.261Z,5.30
2023-05-07T06:39:05.134Z,8.70
2023-05-07T06:41:34.501Z,17.00
2023-05-07T06:44:04.759Z,10.90
2023-05-07T06:46:33.391Z,14.80
2023-05-07T06:49:01.946Z,14.70
2023-05-07T06:51:30.588Z,13.80
2023-05-07T06:53:58.769Z,12.10
2023-05-07T06:56:27.567Z,13.00
2023-05-07T06:58:55.696Z,16.30
2023-05-07T07:01:25.280Z,16.30
2023-05-07T07:03:54.150Z,14.60
2023-05-07T07:06:22.753Z,11.60
2023-05-07T07:08:51.517Z,11.90
2023-05-07T07:11:19.978Z,12.40
2023-05-07T07:13:48.613Z,11.00
2023-05-07T07:16:18.296Z,8.20
2023-05-07T07:18:46.960Z,11.20
2023-05-07T07:21:15.304Z,13.30
2023-05-07T07:23:43.891Z,14.20
2023-05-07T07:26:12.470Z,10.50
2023-05-07T07:28:48.216Z,10.70
2023-05-07T07:31:16.712Z,11.80
2023-05-07T07:33:45.430Z,9.30
2023-05-07T07:36:13.872Z,11.00
2023-05-07T07:38:42.386Z,9.90
2023-05-07T07:41:10.437Z,13.30
2023-05-07T07:43:39.029Z,6.80
2023-05-07T07:46:07.798Z,9.00
2023-05-07T07:48:36.884Z,7.90
2023-05-07T07:51:05.631Z,12.90
2023-05-07T07:53:35.339Z,9.00
2023-05-07T07:56:05.843Z,11.30
2023-05-07T07:58:35.271Z,12.30
2023-05-07T08:01:04.039Z,10.90
2023-05-07T08:03:32.878Z,12.10
2023-05-07T08:06:01.205Z,10.20
2023-05-07T08:08:31.838Z,10.30
2023-05-07T08:11:01.019Z,10.10
2023-05-07T08:13:29.384Z,10.70
2023-05-07T08:15:58.347Z,11.20
2023-05-07T08:18:28.253Z,11.40
2023-05-07T08:20:58.095Z,10.10
2023-05-07T08:23:31.479Z,7.30
2023-05-07T08:26:00.416Z,10.60
2023-05-07T08:28:28.738Z,9.40
2023-05-07T08:30:56.899Z,12.30
2023-05-07T08:33:25.087Z,10.50
2023-05-07T08:35:53.890Z,7.10
2023-05-07T08:38:21.890Z,7.50
2023-05-07T08:40:51.358Z,14.30
2023-05-07T08:43:20.786Z,9.30
2023-05-07T08:45:54.628Z,9.60
2023-05-07T08:48:26.732Z,8.90
2023-05-07T08:50:55.267Z,8.60
2023-05-07T08:53:24.928Z,8.40
2023-05-07T08:55:54.640Z,7.90
2023-05-07T08:58:23.405Z,8.80
2023-05-07T09:00:54.001Z,10.20
2023-05-07T09:03:23.958Z,6.50
2023-05-07T09:05:52.679Z,10.80
2023-05-07T09:08:28.355Z,8.50
2023-05-07T09:10:59.136Z,7.20
2023-05-07T09:13:29.330Z,9.40
2023-05-07T09:15:58.106Z,10.80
2023-05-07T09:18:30.210Z,7.40
2023-05-07T09:20:58.771Z,7.80
2023-05-07T09:23:28.016Z,6.40
2023-05-07T09:26:02.543Z,10.50
2023-05-07T09:28:30.793Z,7.30
2023-05-07T09:30:59.696Z,9.00
2023-05-07T09:33:29.775Z,9.30
2023-05-07T09:35:58.293Z,13.00
2023-05-07T09:38:26.945Z,7.50
2023-05-07T09:41:07.870Z,8.90
2023-05-07T09:43:38.247Z,8.10
2023-05-07T09:46:16.817Z,8.10
2023-05-07T09:48:46.977Z,9.60
2023-05-07T09:51:52.280Z,9.30
2023-05-07T09:54:20.606Z,6.80
2023-05-07T09:56:54.528Z,8.50
2023-05-07T09:59:23.794Z,7.70
2023-05-07T10:01:57.868Z,7.90
2023-05-07T10:04:27.231Z,6.40
2023-05-07T10:06:55.905Z,10.50
2023-05-07T10:09:25.013Z,8.10
2023-05-07T10:11:53.681Z,7.90
2023-05-07T10:14:22.723Z,7.70
2023-05-07T10:16:54.792Z,11.20
2023-05-07T10:19:23.887Z,8.60
2023-05-07T10:21:57.826Z,9.70
2023-05-07T10:24:31.913Z,5.90
2023-05-07T10:27:01.955Z,12.70
2023-05-07T10:29:55.341Z,6.30
2023-05-07T10:32:55.158Z,9.30
2023-05-07T10:35:30.930Z,8.10
2023-05-07T10:37:59.588Z,7.80
2023-05-07T10:40:27.864Z,7.20
2023-05-07T10:43:00.700Z,9.30
2023-05-07T10:45:30.045Z,10.40
2023-05-07T10:50:49.139Z,6.80
2023-05-07T10:53:25.366Z,7.80
2023-05-07T10:56:19.255Z,6.30
2023-05-07T10:58:47.314Z,10.40
2023-05-07T11:01:15.573Z,7.60
2023-05-07T11:04:14.075Z,5.90
2023-05-07T11:06:42.481Z,11.80
2023-05-07T11:09:11.457Z,7.90
2023-05-07T11:11:48.198Z,7.30
2023-05-07T11:14:42.409Z,7.00
2023-05-07T11:17:13.875Z,8.40
2023-05-07T11:19:56.957Z,9.10
2023-05-07T11:22:38.784Z,7.90
2023-05-07T11:25:07.969Z,9.20
2023-05-07T11:27:37.047Z,3.20
2023-05-07T11:30:05.751Z,5.80
2023-05-07T11:32:34.975Z,6.10
2023-05-07T11:35:03.873Z,4.60
2023-05-07T11:37:31.999Z,10.60
2023-05-07T11:40:07.877Z,3.40
2023-05-07T11:42:39.165Z,4.30
2023-05-07T11:45:08.698Z,4.90
2023-05-07T11:47:36.814Z,6.50
2023-05-07T11:50:09.511Z,4.70
2023-05-07T11:52:37.789Z,3.80
2023-05-07T11:55:09.425Z,4.80
2023-05-07T11:57:37.673Z,4.40
2023-05-07T12:00:08.529Z,7.60
2023-05-07T12:02:36.773Z,6.60
2023-05-07T12:05:06.283Z,5.70
2023-05-07T12:07:35.649Z,2.90
2023-05-07T12:10:08.331Z,3.50
2023-05-07T12:12:40.378Z,5.20
2023-05-07T12:15:10.310Z,3.70
2023-05-07T12:17:39.337Z,4.00
2023-05-07T12:20:10.703Z,6.40
2023-05-07T12:22:39.249Z,6.20
2023-05-07T12:25:08.388Z,4.60
2023-05-07T12:27:40.315Z,4.60
2023-05-07T12:30:11.874Z,2.50
2023-05-07T12:32:40.765Z,3.90
2023-05-07T12:35:11.408Z,4.30
2023-05-07T12:37:39.717Z,5.60
2023-05-07T12:40:11.936Z,6.70
2023-05-07T12:42:41.800Z,6.00
2023-05-07T12:45:15.026Z,4.60
2023-05-07T12:47:47.766Z,4.20
2023-05-07T12:50:17.446Z,3.80
2023-05-07T12:52:49.034Z,5.40
2023-05-07T12:55:18.629Z,4.40
2023-05-07T12:57:49.824Z,3.10
2023-05-07T13:00:19.440Z,4.30
2023-05-07T13:02:48.333Z,3.30
2023-05-07T13:05:16.520Z,8.70
2023-05-07T13:07:58.251Z,3.10
2023-05-07T13:10:29.349Z,3.70
2023-05-07T13:12:58.386Z,4.70
2023-05-07T13:15:26.917Z,5.40
2023-05-07T13:17:55.187Z,3.40
2023-05-07T13:20:23.604Z,6.00
2023-05-07T13:22:52.212Z,4.30
2023-05-07T13:25:20.377Z,4.80
2023-05-07T13:27:56.493Z,5.70
2023-05-07T13:30:31.725Z,5.00
2023-05-07T13:33:00.585Z,6.30
2023-05-07T13:35:29.290Z,4.80
2023-05-07T13:37:58.527Z,5.30
2023-05-07T13:40:26.888Z,4.70
2023-05-07T13:42:57.972Z,5.70
2023-05-07T13:45:26.728Z,8.50
2023-05-07T13:47:55.459Z,4.80
2023-05-07T13:50:23.872Z,3.20
2023-05-07T13:52:52.138Z,3.90
2023-05-07T13:55:21.787Z,7.20
2023-05-07T13:57:59.420Z,3.60
2023-05-07T14:00:28.755Z,5.90
2023-05-07T14:02:57.786Z,4.20
2023-05-07T14:05:26.394Z,6.60
2023-05-07T14:07:56.682Z,2.80
2023-05-07T14:10:25.843Z,3.20
2023-05-07T14:12:54.444Z,5.90
2023-05-07T14:15:22.685Z,6.00
2023-05-07T14:17:51.169Z,5.80
2023-05-07T14:20:19.288Z,5.20
2023-05-07T14:22:47.369Z,4.40
2023-05-07T14:25:15.787Z,5.30
2023-05-07T14:27:44.472Z,5.20
2023-05-07T14:30:12.805Z,9.10
2023-05-07T14:32:42.173Z,7.10
2023-05-07T14:35:11.082Z,3.30
2023-05-07T14:37:39.530Z,2.80
2023-05-07T14:40:08.476Z,3.30
2023-05-07T14:42:36.748Z,6.00
2023-05-07T14:45:05.380Z,4.50
2023-05-07T14:47:33.528Z,3.90
2023-05-07T14:50:02.325Z,4.90
2023-05-07T14:52:30.572Z,4.80
2023-05-07T14:54:58.766Z,3.50
2023-05-07T14:57:27.931Z,3.10
2023-05-07T14:59:56.309Z,3.50
2023-05-07T15:02:24.572Z,3.10
2023-05-07T15:04:53.580Z,4.00
2023-05-07T15:07:22.464Z,3.20
2023-05-07T15:09:51.050Z,3.90
2023-05-07T15:12:20.771Z,2.00
2023-05-07T15:14:49.083Z,2.50
2023-05-07T15:17:17.244Z,5.50
2023-05-07T15:19:45.968Z,2.10
2023-05-07T15:22:15.561Z,2.90
2023-05-07T15:24:43.769Z,4.30
2023-05-07T15:27:12.391Z,3.90
2023-05-07T15:29:40.450Z,3.80
2023-05-07T15:32:09.861Z,3.10
2023-05-07T15:34:38.780Z,2.70
2023-05-07T15:37:06.933Z,4.30
2023-05-07T15:39:35.204Z,6.30
2023-05-07T15:42:06.692Z,3.20
2023-05-07T15:44:35.929Z,3.70
2023-05-07T15:47:04.793Z,4.90
2023-05-07T15:49:33.764Z,4.70
2023-05-07T15:52:02.416Z,3.10
2023-05-07T15:54:30.828Z,7.90
2023-05-07T15:56:59.298Z,2.10
2023-05-07T15:59:28.117Z,3.20
2023-05-07T16:01:56.652Z,2.70
2023-05-07T16:04:26.923Z,3.00
2023-05-07T16:06:55.468Z,2.10
2023-05-07T16:09:23.599Z,3.40
2023-05-07T16:11:54.041Z,3.70
2023-05-07T16:14:22.832Z,4.20
2023-05-07T16:16:52.883Z,3.50
2023-05-07T16:19:22.807Z,2.60
2023-05-07T16:21:51.733Z,7.50
2023-05-07T16:24:20.491Z,4.80
2023-05-07T16:26:49.060Z,6.90
2023-05-07T16:29:17.139Z,9.70
2023-05-07T16:31:45.365Z,5.80
2023-05-07T16:34:14.212Z,4.90
2023-05-07T16:36:43.208Z,6.70
2023-05-07T16:39:11.842Z,8.60
2023-05-07T16:41:40.618Z,6.50
2023-05-07T16:44:09.202Z,5.90
2023-05-07T16:46:38.150Z,6.20
2023-05-07T16:49:07.208Z,5.70
2023-05-07T16:51:35.803Z,5.70
2023-05-07T16:54:04.150Z,7.20
2023-05-07T16:56:32.846Z,8.20
2023-05-07T16:59:02.229Z,6.10
2023-05-07T17:01:30.463Z,5.70
2023-05-07T17:03:59.348Z,6.30
2023-05-07T17:06:28.103Z,6.80
2023-05-07T17:08:56.979Z,15.50
2023-05-07T17:11:25.361Z,4.80
2023-05-07T17:13:53.832Z,6.50
2023-05-07T17:16:22.689Z,3.70
2023-05-07T17:18:51.326Z,6.30
2023-05-07T17:21:20.530Z,7.00
2023-05-07T17:23:49.511Z,6.80
2023-05-07T17:26:19.111Z,8.40
2023-05-07T17:28:48.468Z,6.10
2023-05-07T17:31:17.080Z,4.40
2023-05-07T17:33:46.810Z,6.50
2023-05-07T17:36:16.228Z,7.00
2023-05-07T17:38:44.999Z,5.30
2023-05-07T17:41:14.409Z,5.10
2023-05-07T17:43:42.706Z,5.70
2023-05-07T17:46:10.915Z,3.90
2023-05-07T17:48:40.192Z,5.60
2023-05-07T17:51:10.092Z,10.50
2023-05-07T17:53:39.738Z,5.60
2023-05-07T17:56:08.493Z,4.00
2023-05-07T17:58:42.753Z,5.50
2023-05-07T18:01:23.026Z,6.80
2023-05-07T18:03:51.956Z,6.10
2023-05-07T18:06:20.667Z,5.50
2023-05-07T18:08:49.969Z,11.20
2023-05-07T18:11:19.824Z,6.50
2023-05-07T18:13:48.321Z,6.50
2023-05-07T18:16:16.478Z,7.00
2023-05-07T18:18:44.765Z,4.90
2023-05-07T18:21:13.332Z,5.30
2023-05-07T18:23:42.248Z,4.50
2023-05-07T18:26:10.821Z,4.30
2023-05-07T18:28:38.840Z,5.50
2023-05-07T18:31:07.767Z,5.40
2023-05-07T18:33:36.116Z,5.50
2023-05-07T18:36:04.393Z,4.10
2023-05-07T18:38:33.270Z,5.90
2023-05-07T18:41:05.242Z,5.80
2023-05-07T18:43:34.365Z,5.20
2023-05-07T18:46:02.550Z,7.00
2023-05-07T18:48:32.385Z,8.80
2023-05-07T18:51:01.424Z,11.10
2023-05-07T18:53:29.504Z,5.90
2023-05-07T18:55:58.109Z,9.60
2023-05-07T18:58:26.444Z,5.60
2023-05-07T19:00:55.517Z,6.70
2023-05-07T19:03:23.643Z,8.40
2023-05-07T19:05:52.760Z,10.70
2023-05-07T19:08:20.833Z,10.20
2023-05-07T19:10:48.878Z,6.40
2023-05-07T19:13:17.526Z,9.30
2023-05-07T19:15:46.417Z,7.10
2023-05-07T19:18:14.533Z,9.20
2023-05-07T19:20:43.104Z,3.40
2023-05-07T19:23:11.252Z,7.60
2023-05-07T19:25:39.555Z,5.50
2023-05-07T19:28:07.642Z,9.10
2023-05-07T19:30:38.923Z,5.80
2023-05-07T19:33:07.923Z,6.40
2023-05-07T19:35:36.740Z,5.80
2023-05-07T19:38:05.023Z,7.50
2023-05-07T19:40:33.906Z,8.60
2023-05-07T19:43:03.928Z,5.20
2023-05-07T19:45:31.981Z,8.90
2023-05-07T19:48:00.957Z,7.60
2023-05-07T19:50:29.148Z,4.80
2023-05-07T19:52:57.189Z,5.60
2023-05-07T19:55:25.806Z,4.40
2023-05-07T19:57:54.084Z,4.60
2023-05-07T20:00:22.549Z,4.00
2023-05-07T20:02:52.127Z,4.90
2023-05-07T20:05:20.931Z,4.30
2023-05-07T20:07:49.153Z,5.00
2023-05-07T20:10:17.941Z,6.50
2023-05-07T20:12:46.543Z,4.20
2023-05-07T20:15:14.688Z,5.30
2023-05-07T20:17:43.124Z,3.60
2023-05-07T20:20:12.043Z,3.40
2023-05-07T20:22:40.330Z,3.90
2023-05-07T20:25:10.425Z,5.70
2023-05-07T20:27:38.499Z,5.00
2023-05-07T20:30:08.769Z,5.00
2023-05-07T20:32:37.402Z,4.30
2023-05-07T20:35:06.037Z,6.40
2023-05-07T20:37:34.424Z,5.10
2023-05-07T20:40:03.463Z,6.60
2023-05-07T20:42:31.552Z,5.20
2023-05-07T20:45:02.159Z,3.70
2023-05-07T20:47:33.225Z,7.00
2023-05-07T20:50:01.600Z,6.20
2023-05-07T20:52:30.226Z,4.70
2023-05-07T20:54:58.888Z,6.20
2023-05-07T20:57:27.058Z,3.10
2023-05-07T20:59:55.263Z,5.90
2023-05-07T21:02:23.716Z,5.60
2023-05-07T21:04:52.549Z,4.20
2023-05-07T21:07:20.746Z,4.40
2023-05-07T21:09:49.395Z,3.50
2023-05-07T21:12:17.485Z,7.30
2023-05-07T21:14:45.731Z,6.00
2023-05-07T21:17:13.875Z,3.40
2023-05-07T21:19:42.215Z,4.70
2023-05-07T21:22:10.551Z,4.10
2023-05-07T21:24:39.327Z,4.30
2023-05-07T21:27:07.589Z,3.30
2023-05-07T21:29:36.200Z,5.20
2023-05-07T21:32:06.571Z,3.80
2023-05-07T21:34:36.025Z,3.70
2023-05-07T21:37:10.651Z,3.70
2023-05-07T21:39:59.476Z,5.40
2023-05-07T21:42:27.838Z,5.30
2023-05-07T21:44:56.172Z,3.90
2023-05-07T21:47:24.714Z,3.60
2023-05-07T21:49:52.904Z,3.80
2023-05-07T21:52:21.030Z,6.40
2023-05-07T21:54:52.748Z,7.00
2023-05-07T21:57:21.237Z,6.10
2023-05-07T21:59:49.274Z,8.60
2023-05-07T22:02:17.822Z,4.10
2023-05-07T22:04:45.959Z,5.50
2023-05-07T22:07:14.142Z,6.90
2023-05-07T22:09:42.287Z,7.90
2023-05-07T22:12:10.953Z,3.80
2023-05-07T22:14:39.680Z,3.90
2023-05-07T22:17:08.038Z,8.10
2023-05-07T22:19:36.343Z,6.60
2023-05-07T22:22:04.557Z,6.60
2023-05-07T22:24:33.355Z,6.20
2023-05-07T22:27:01.477Z,5.90
2023-05-07T22:29:29.556Z,4.10
2023-05-07T22:31:57.815Z,4.40
2023-05-07T22:34:25.919Z,5.50
2023-05-07T22:36:54.158Z,3.90
2023-05-07T22:39:22.477Z,4.10
2023-05-07T22:41:54.162Z,3.50
2023-05-07T22:44:22.394Z,5.40
2023-05-07T22:46:50.614Z,5.30
2023-05-07T22:49:18.973Z,4.70
2023-05-07T22:51:50.500Z,5.00
2023-05-07T22:54:18.831Z,5.20
2023-05-07T22:56:47.565Z,6.60
2023-05-07T22:59:16.913Z,4.40
2023-05-07T23:01:47.442Z,6.10
2023-05-07T23:04:15.870Z,5.00
2023-05-07T23:06:44.089Z,3.70
2023-05-07T23:09:12.407Z,5.00
2023-05-07T23:11:40.853Z,4.20
2023-05-07T23:14:09.561Z,5.10
2023-05-07T23:16:37.790Z,5.80
2023-05-07T23:19:05.932Z,7.20
2023-05-07T23:21:34.163Z,6.60
2023-05-07T23:24:02.428Z,6.80
2023-05-07T23:26:31.163Z,5.30
2023-05-07T23:28:59.902Z,6.90
2023-05-07T23:31:28.659Z,4.70
2023-05-07T23:33:56.854Z,6.60
2023-05-07T23:36:25.603Z,4.40
2023-05-07T23:38:54.258Z,5.50
2023-05-07T23:41:22.549Z,7.00
2023-05-07T23:43:50.716Z,8.70
2023-05-07T23:46:18.919Z,7.00
2023-05-07T23:48:47.058Z,8.70
2023-05-07T23:51:15.304Z,6.50
2023-05-07T23:53:43.393Z,9.30
2023-05-07T23:56:11.573Z,7.10
2023-05-07T23:58:39.880Z,7.70
